Time;durP1;ratioP1;P1;durP2;ratioP2;P2;SDS_P1;SDS_P2;PMS_P1;PMS_P2;Temp;Humidity;BMP_temperature;BMP_pressure;BME280_temperature;BME280_humidity;BME280_pressure;Samples;Min_cycle;Max_cycle;Signal;HPM_P1;HPM_P2
2022/04/07 00:00:20;;;;;;;;;4.00;4.00;;;;;9.13;80.94;97695.16;5099237;28;8854;-63
2022/04/07 00:02:48;;;;;;;;;2.00;2.00;;;;;9.11;81.49;97681.22;5110795;28;8867;-66
2022/04/07 00:05:15;;;;;;;;;3.50;3.50;;;;;9.08;81.60;97696.66;5118872;28;8849;-63
2022/04/07 00:07:43;;;;;;;;;3.25;3.25;;;;;9.04;81.69;97690.84;5102174;28;8921;-68
2022/04/07 00:10:11;;;;;;;;;2.00;2.00;;;;;9.01;81.54;97693.84;5100141;28;8950;-62
2022/04/07 00:12:39;;;;;;;;;2.00;1.00;;;;;9.00;81.72;97684.22;5098497;28;8841;-62
2022/04/07 00:15:07;;;;;;;;;2.50;2.50;;;;;9.01;81.76;97691.19;5119366;28;8833;-63
2022/04/07 00:17:35;;;;;;;;;3.00;3.00;;;;;9.03;81.93;97689.19;5118448;28;8886;-63
2022/04/07 00:20:04;;;;;;;;;3.00;3.00;;;;;9.05;81.84;97697.81;5118218;28;8831;-63
2022/04/07 00:22:31;;;;;;;;;5.00;4.00;;;;;9.07;81.64;97701.16;5100284;28;8957;-63
2022/04/07 00:24:59;;;;;;;;;3.00;3.00;;;;;9.07;81.77;97710.94;5108701;28;8812;-64
2022/04/07 00:27:27;;;;;;;;;0.00;0.00;;;;;9.06;81.62;97709.28;5097673;28;9524;-64
2022/04/07 00:29:55;;;;;;;;;2.00;1.00;;;;;9.03;81.37;97683.88;5097732;28;8940;-63
2022/04/07 00:32:22;;;;;;;;;0.75;0.50;;;;;9.01;81.82;97669.13;5097201;28;8847;-62
2022/04/07 00:34:54;;;;;;;;;1.00;1.00;;;;;8.94;81.73;97673.44;5097968;28;8834;-63
2022/04/07 00:37:23;;;;;;;;;2.00;1.00;;;;;8.86;81.88;97673.44;5110800;28;8825;-63
2022/04/07 00:39:50;;;;;;;;;1.50;1.50;;;;;8.82;82.05;97685.41;5104803;28;8824;-63
2022/04/07 00:42:18;;;;;;;;;0.00;0.00;;;;;8.78;82.26;97684.91;5114190;28;8930;-66
2022/04/07 00:44:46;;;;;;;;;1.00;1.00;;;;;8.74;82.34;97649.06;5097889;28;8827;-66
2022/04/07 00:47:13;;;;;;;;;0.00;0.00;;;;;8.68;82.18;97641.78;5108434;28;8894;-64
2022/04/07 00:49:42;;;;;;;;;0.00;0.00;;;;;8.61;82.65;97640.81;5118742;28;8984;-64
2022/04/07 00:52:09;;;;;;;;;0.50;0.50;;;;;8.55;82.57;97644.13;5118179;28;8826;-63
2022/04/07 00:54:37;;;;;;;;;0.50;0.00;;;;;8.50;82.54;97642.97;5117866;28;8926;-63
2022/04/07 00:57:05;;;;;;;;;0.25;0.25;;;;;8.46;83.13;97618.59;5102790;28;9501;-62
2022/04/07 00:59:33;;;;;;;;;0.75;0.75;;;;;8.45;83.21;97624.06;5096735;28;8845;-63
2022/04/07 01:02:00;;;;;;;;;0.25;0.25;;;;;8.45;83.38;97619.56;5095447;28;8804;-62
2022/04/07 01:04:28;;;;;;;;;0.75;0.75;;;;;8.47;82.92;97620.25;5095393;28;8824;-62
2022/04/07 01:06:56;;;;;;;;;0.75;0.50;;;;;8.51;83.11;97607.50;5096054;28;8849;-63
2022/04/07 01:09:24;;;;;;;;;1.00;1.00;;;;;8.57;82.54;97612.09;5095310;28;8889;-63
2022/04/07 01:11:51;;;;;;;;;3.50;3.00;;;;;8.66;82.55;97600.53;5096214;28;8847;-63
2022/04/07 01:14:19;;;;;;;;;4.00;3.50;;;;;8.78;82.60;97588.53;5097030;28;8834;-62
2022/04/07 01:16:47;;;;;;;;;3.00;2.50;;;;;8.86;81.74;97588.53;5106036;28;8838;-63
2022/04/07 01:19:16;;;;;;;;;4.00;3.00;;;;;8.94;81.46;97586.69;5117845;28;8825;-62
2022/04/07 01:21:43;;;;;;;;;1.00;1.00;;;;;9.01;81.21;97577.06;5116119;28;8956;-62
2022/04/07 01:24:12;;;;;;;;;2.50;2.50;;;;;9.07;81.07;97572.88;5117289;28;8825;-63
2022/04/07 01:26:39;;;;;;;;;2.00;2.00;;;;;9.13;80.49;97578.34;5111281;28;8946;-63
2022/04/07 01:29:07;;;;;;;;;1.00;1.00;;;;;9.19;80.45;97564.38;5097024;28;8832;-63
2022/04/07 01:31:35;;;;;;;;;1.00;1.00;;;;;9.25;80.39;97573.47;5106723;28;8922;-62
2022/04/07 01:34:03;;;;;;;;;1.50;1.50;;;;;9.27;80.48;97564.34;5098969;28;8828;-63
2022/04/07 01:36:30;;;;;;;;;1.50;1.50;;;;;9.29;80.14;97556.22;5099862;28;8801;-62
2022/04/07 01:38:58;;;;;;;;;2.00;2.00;;;;;9.31;80.19;97559.50;5116414;28;8829;-62
2022/04/07 01:41:26;;;;;;;;;4.00;3.00;;;;;9.35;80.16;97560.84;5115538;28;8942;-63
2022/04/07 01:43:53;;;;;;;;;0.75;0.75;;;;;9.38;80.01;97555.16;5107392;28;8993;-64
2022/04/07 01:46:21;;;;;;;;;1.00;1.00;;;;;9.42;80.00;97537.91;5096997;28;8958;-62
2022/04/07 01:48:49;;;;;;;;;2.00;2.00;;;;;9.50;79.94;97548.47;5097052;28;8958;-62
2022/04/07 01:51:17;;;;;;;;;0.75;0.25;;;;;9.56;79.55;97545.13;5114288;28;8817;-63
2022/04/07 01:53:44;;;;;;;;;2.00;1.00;;;;;9.59;79.23;97529.69;5117537;28;8951;-62
2022/04/07 01:56:12;;;;;;;;;1.00;1.00;;;;;9.63;79.14;97523.00;5117193;28;8828;-62
2022/04/07 01:58:41;;;;;;;;;1.00;1.00;;;;;9.66;78.95;97527.13;5116815;28;8813;-62
2022/04/07 02:01:09;;;;;;;;;0.00;0.00;;;;;9.68;78.54;97520.66;5112641;28;8836;-63
2022/04/07 02:03:38;;;;;;;;;1.00;1.00;;;;;9.70;78.80;97520.44;5114654;28;8817;-63
2022/04/07 02:06:06;;;;;;;;;0.50;0.50;;;;;9.71;78.56;97508.84;5114942;28;8821;-62
2022/04/07 02:08:34;;;;;;;;;1.00;1.00;;;;;9.71;78.58;97501.69;5115702;28;8805;-62
2022/04/07 02:11:02;;;;;;;;;0.50;0.25;;;;;9.72;78.45;97508.66;5099986;28;8846;-62
2022/04/07 02:13:29;;;;;;;;;1.00;0.00;;;;;9.75;78.18;97508.31;5115972;28;8816;-62
2022/04/07 02:15:57;;;;;;;;;1.00;1.00;;;;;9.78;78.50;97499.97;5105779;28;9612;-62
2022/04/07 02:18:25;;;;;;;;;0.50;0.50;;;;;9.81;77.65;97498.81;5096308;28;8819;-62
2022/04/07 02:20:53;;;;;;;;;0.00;0.00;;;;;9.80;77.87;97497.97;5110647;28;8822;-63
2022/04/07 02:23:20;;;;;;;;;2.00;1.50;;;;;9.81;77.90;97490.81;5116571;28;8833;-63
2022/04/07 02:25:48;;;;;;;;;1.00;1.00;;;;;9.82;77.79;97495.97;5116203;28;8845;-62
2022/04/07 02:28:16;;;;;;;;;0.00;0.00;;;;;9.86;77.63;97493.78;5116434;28;8818;-62
2022/04/07 02:30:44;;;;;;;;;1.50;1.00;;;;;9.87;77.48;97514.84;5105526;28;8844;-63
2022/04/07 02:33:12;;;;;;;;;0.50;0.00;;;;;9.90;77.57;97482.63;5114204;28;8829;-62
2022/04/07 02:35:39;;;;;;;;;1.00;1.00;;;;;9.93;77.15;97482.25;5113785;28;8837;-63
2022/04/07 02:38:08;;;;;;;;;1.00;1.00;;;;;9.91;77.87;97488.75;5116421;28;8823;-62
2022/04/07 02:40:36;;;;;;;;;0.50;0.50;;;;;9.81;77.69;97475.69;5103763;28;8820;-62
2022/04/07 02:43:02;;;;;;;;;0.75;0.75;;;;;9.71;78.12;97487.59;5095142;28;8966;-62
2022/04/07 02:45:30;;;;;;;;;2.50;1.50;;;;;9.56;78.53;97474.22;5095835;28;8835;-62
2022/04/07 02:47:58;;;;;;;;;3.50;3.50;;;;;9.44;78.87;97480.97;5095759;28;8823;-63
2022/04/07 02:50:28;;;;;;;;;0.00;0.00;;;;;9.35;78.62;97471.34;5104575;28;8810;-63
2022/04/07 02:52:55;;;;;;;;;1.00;1.00;;;;;9.26;79.50;97469.75;5115990;28;8817;-62
2022/04/07 02:55:24;;;;;;;;;1.00;1.00;;;;;9.20;79.91;97454.50;5115479;28;8825;-63
2022/04/07 02:57:51;;;;;;;;;1.00;1.00;;;;;9.15;80.03;97448.91;5075839;28;8830;-63
2022/04/07 03:00:19;;;;;;;;;0.00;0.00;;;;;9.13;79.95;97445.59;5102623;28;8825;-63
2022/04/07 03:02:47;;;;;;;;;1.00;1.00;;;;;9.11;79.71;97442.28;5099291;28;8942;-62
2022/04/07 03:05:15;;;;;;;;;0.00;0.00;;;;;9.11;80.34;97433.53;5110654;28;9517;-62
2022/04/07 03:07:43;;;;;;;;;0.00;0.00;;;;;9.12;80.01;97435.97;5115209;28;8943;-62
2022/04/07 03:10:11;;;;;;;;;1.00;1.00;;;;;9.15;79.89;97430.34;5108510;28;8816;-61
2022/04/07 03:12:39;;;;;;;;;0.00;0.00;;;;;9.16;79.85;97424.03;5095681;28;8871;-62
2022/04/07 03:15:06;;;;;;;;;2.00;2.00;;;;;9.15;80.31;97410.91;5095950;28;9517;-61
2022/04/07 03:17:34;;;;;;;;;0.50;0.50;;;;;9.15;80.00;97403.78;5112176;28;8814;-62
2022/04/07 03:20:02;;;;;;;;;1.00;0.00;;;;;9.15;80.25;97406.44;5109154;28;8828;-66
2022/04/07 03:22:30;;;;;;;;;0.00;0.00;;;;;9.15;80.06;97401.13;5098413;28;8871;-62
2022/04/07 03:24:57;;;;;;;;;0.25;0.25;;;;;9.15;80.00;97393.16;5099681;28;9513;-63
2022/04/07 03:27:25;;;;;;;;;1.00;1.00;;;;;9.19;80.21;97394.47;5098961;28;8808;-62
2022/04/07 03:29:53;;;;;;;;;1.00;0.50;;;;;9.26;79.90;97405.22;5103939;28;8817;-62
2022/04/07 03:32:21;;;;;;;;;0.00;0.00;;;;;9.31;79.65;97393.06;5117688;28;8801;-62
2022/04/07 03:34:48;;;;;;;;;0.00;0.00;;;;;9.28;79.46;97392.59;5114571;28;8835;-63
2022/04/07 03:37:17;;;;;;;;;1.00;0.00;;;;;9.23;79.72;97382.50;5098467;28;8839;-63
2022/04/07 03:39:45;;;;;;;;;1.00;1.00;;;;;9.22;79.60;97372.03;5102088;28;8818;-63
2022/04/07 03:42:12;;;;;;;;;1.00;1.00;;;;;9.21;80.00;97373.03;5118479;28;8841;-62
2022/04/07 03:44:40;;;;;;;;;0.00;0.00;;;;;9.22;80.02;97351.63;5117067;28;8842;-63
2022/04/07 03:47:08;;;;;;;;;0.25;0.00;;;;;9.22;79.68;97337.53;5118710;28;8820;-63
2022/04/07 03:49:36;;;;;;;;;0.00;0.00;;;;;9.21;80.00;97336.72;5117022;28;8883;-62
2022/04/07 03:52:04;;;;;;;;;0.00;0.00;;;;;9.21;80.48;97354.47;5118992;28;8806;-62
2022/04/07 03:54:32;;;;;;;;;0.00;0.00;;;;;9.21;79.91;97341.19;5111476;28;8832;-62
2022/04/07 03:57:00;;;;;;;;;0.00;0.00;;;;;9.25;80.13;97330.03;5098876;28;8832;-63
2022/04/07 03:59:29;;;;;;;;;0.00;0.00;;;;;9.28;79.71;97327.00;5099294;28;8839;-63
2022/04/07 04:01:57;;;;;;;;;0.00;0.00;;;;;9.32;79.92;97327.47;5107583;28;8814;-63
2022/04/07 04:04:25;;;;;;;;;0.00;0.00;;;;;9.36;80.00;97320.81;5113278;28;8816;-64
2022/04/07 04:06:52;;;;;;;;;0.00;0.00;;;;;9.42;79.70;97302.31;5100179;28;8832;-63
2022/04/07 04:09:20;;;;;;;;;1.25;1.25;;;;;9.48;78.94;97308.78;5098616;28;8902;-62
2022/04/07 04:11:48;;;;;;;;;0.00;0.00;;;;;9.53;79.02;97309.03;5110242;28;9524;-62
2022/04/07 04:14:16;;;;;;;;;1.50;0.00;;;;;9.55;78.83;97313.19;5097900;28;8866;-62
2022/04/07 04:16:44;;;;;;;;;0.00;0.00;;;;;9.60;78.78;97307.31;5097940;28;8847;-63
2022/04/07 04:19:12;;;;;;;;;0.75;0.75;;;;;9.64;78.73;97303.31;5097609;28;8828;-63
2022/04/07 04:21:39;;;;;;;;;0.00;0.00;;;;;9.67;78.28;97298.47;5114019;28;8828;-63
2022/04/07 04:24:07;;;;;;;;;0.75;0.75;;;;;9.68;78.00;97276.19;5101893;28;8828;-62
2022/04/07 04:26:35;;;;;;;;;0.75;0.75;;;;;9.70;78.74;97276.00;5108864;28;8823;-63
2022/04/07 04:29:04;;;;;;;;;0.00;0.00;;;;;9.72;78.26;97285.44;5099182;28;8866;-62
2022/04/07 04:31:31;;;;;;;;;0.00;0.00;;;;;9.76;78.26;97267.28;5107141;28;8823;-62
2022/04/07 04:33:59;;;;;;;;;0.00;0.00;;;;;9.81;77.86;97280.88;5116612;28;9502;-63
2022/04/07 04:36:28;;;;;;;;;0.50;0.00;;;;;9.86;77.23;97262.56;5105828;28;8806;-63
2022/04/07 04:38:56;;;;;;;;;0.00;0.00;;;;;9.89;77.01;97257.69;5112776;28;8918;-62
2022/04/07 04:41:23;;;;;;;;;0.00;0.00;;;;;9.90;77.12;97254.03;5102315;28;8851;-62
2022/04/07 04:43:51;;;;;;;;;0.00;0.00;;;;;9.92;77.03;97240.53;5098592;28;9647;-62
2022/04/07 04:46:19;;;;;;;;;0.00;0.00;;;;;9.93;77.04;97229.72;5098597;28;8833;-63
2022/04/07 04:48:47;;;;;;;;;0.00;0.00;;;;;9.95;77.35;97238.34;5098611;28;8830;-62
2022/04/07 04:51:15;;;;;;;;;0.00;0.00;;;;;9.97;76.56;97233.69;5103944;28;8967;-62
2022/04/07 04:53:42;;;;;;;;;0.00;0.00;;;;;9.99;76.84;97228.16;5118954;28;8983;-63
2022/04/07 04:56:10;;;;;;;;;0.00;0.00;;;;;10.00;76.43;97217.34;5115002;28;8810;-62
2022/04/07 04:58:38;;;;;;;;;0.00;0.00;;;;;10.02;76.82;97207.34;5117691;28;8944;-63
2022/04/07 05:01:05;;;;;;;;;0.00;0.00;;;;;10.05;76.54;97199.06;5115620;28;8832;-63
2022/04/07 05:03:33;;;;;;;;;0.00;0.00;;;;;10.09;76.14;97189.69;5097160;28;8827;-62
2022/04/07 05:06:01;;;;;;;;;1.00;1.00;;;;;10.11;76.47;97186.84;5114981;28;8952;-62
2022/04/07 05:08:29;;;;;;;;;1.00;0.00;;;;;10.12;76.15;97191.97;5115293;28;8825;-62
2022/04/07 05:10:57;;;;;;;;;0.00;0.00;;;;;10.08;76.14;97184.56;5096878;28;8842;-62
2022/04/07 05:13:24;;;;;;;;;0.00;0.00;;;;;9.91;76.60;97175.94;5096752;28;8820;-63
2022/04/07 05:15:52;;;;;;;;;0.00;0.00;;;;;9.82;77.00;97166.44;5112560;28;8829;-63
2022/04/07 05:18:20;;;;;;;;;0.00;0.00;;;;;9.69;77.65;97166.25;5116932;28;8962;-64
2022/04/07 05:20:48;;;;;;;;;0.00;0.00;;;;;9.52;78.40;97171.94;5102955;28;8924;-62
2022/04/07 05:23:16;;;;;;;;;0.00;0.00;;;;;9.37;79.19;97144.53;5113859;28;8851;-64
2022/04/07 05:25:45;;;;;;;;;0.25;0.25;;;;;9.26;79.35;97148.47;5102320;28;8832;-62
2022/04/07 05:28:12;;;;;;;;;0.00;0.00;;;;;9.19;80.21;97136.13;5095707;28;8842;-62
2022/04/07 05:30:40;;;;;;;;;0.00;0.00;;;;;9.13;80.33;97126.22;5095377;28;8820;-63
2022/04/07 05:33:08;;;;;;;;;0.00;0.00;;;;;9.08;80.63;97121.47;5096025;28;8816;-62
2022/04/07 05:35:36;;;;;;;;;0.00;0.00;;;;;9.06;80.56;97120.00;5108856;28;8818;-62
2022/04/07 05:38:04;;;;;;;;;0.00;0.00;;;;;9.05;80.89;97126.31;5095776;28;8832;-63
2022/04/07 05:40:33;;;;;;;;;0.25;0.00;;;;;9.04;81.33;97114.84;5102702;28;8943;-63
2022/04/07 05:43:01;;;;;;;;;0.00;0.00;;;;;9.03;81.70;97115.06;5115437;28;8833;-63
2022/04/07 05:45:29;;;;;;;;;0.00;0.00;;;;;9.04;81.25;97100.78;5101853;28;8827;-63
2022/04/07 05:47:57;;;;;;;;;0.50;0.50;;;;;9.05;82.02;97097.94;5094754;28;9585;-62
2022/04/07 05:50:25;;;;;;;;;0.75;0.75;;;;;9.06;82.13;97099.59;5103673;28;8828;-62
2022/04/07 05:52:52;;;;;;;;;0.50;0.25;;;;;9.09;82.48;97085.13;5092195;28;8836;-62
2022/04/07 05:55:20;;;;;;;;;0.00;0.00;;;;;9.13;82.39;97095.19;5091356;28;8865;-62
2022/04/07 05:57:49;;;;;;;;;1.00;0.00;;;;;9.15;82.80;97079.09;5091785;28;9559;-63
2022/04/07 06:00:18;;;;;;;;;0.00;0.00;;;;;9.16;82.99;97068.28;5091737;28;8971;-63
2022/04/07 06:02:46;;;;;;;;;0.00;0.00;;;;;9.17;82.99;97063.78;5091239;28;8852;-63
2022/04/07 06:05:16;;;;;;;;;0.00;0.00;;;;;9.19;83.07;97057.28;5089665;28;9561;-62
2022/04/07 06:07:44;;;;;;;;;0.00;0.00;;;;;9.21;83.19;97054.47;5088500;28;8838;-62
2022/04/07 06:10:12;;;;;;;;;0.00;0.00;;;;;9.21;82.93;97055.28;5088656;28;9543;-62
2022/04/07 06:12:42;;;;;;;;;0.00;0.00;;;;;9.23;83.55;97047.13;5089268;28;8851;-62
2022/04/07 06:15:10;;;;;;;;;1.00;0.75;;;;;9.22;83.71;97027.72;5089523;28;8854;-62
2022/04/07 06:17:39;;;;;;;;;0.00;0.00;;;;;9.24;83.62;97022.22;5089223;28;8989;-62
2022/04/07 06:20:07;;;;;;;;;0.75;0.75;;;;;9.28;83.04;97019.00;5089232;28;8989;-63
2022/04/07 06:22:35;;;;;;;;;0.00;0.00;;;;;9.31;83.32;97023.97;5092319;28;8950;-62
2022/04/07 06:25:04;;;;;;;;;0.00;0.00;;;;;9.35;83.53;97009.28;5105726;28;8821;-66
2022/04/07 06:27:31;;;;;;;;;0.00;0.00;;;;;9.42;83.49;96996.09;5095187;28;8859;-62
2022/04/07 06:29:59;;;;;;;;;0.00;0.00;;;;;9.49;83.63;96975.75;5099500;28;8833;-63
2022/04/07 06:32:27;;;;;;;;;0.00;0.00;;;;;9.54;83.20;96994.59;5112201;28;8821;-62
2022/04/07 06:34:55;;;;;;;;;0.00;0.00;;;;;9.61;82.97;96998.13;5100033;28;8811;-63
2022/04/07 06:37:23;;;;;;;;;0.00;0.00;;;;;9.68;82.84;96972.47;5092195;28;8831;-63
2022/04/07 06:39:51;;;;;;;;;0.00;0.00;;;;;9.74;82.67;96985.84;5097494;28;8834;-62
2022/04/07 06:42:19;;;;;;;;;0.00;0.00;;;;;9.77;82.88;96997.91;5109473;28;8840;-62
2022/04/07 06:44:46;;;;;;;;;0.00;0.00;;;;;9.74;83.08;96982.34;5099950;28;8819;-63
2022/04/07 06:47:16;;;;;;;;;2.00;2.00;;;;;9.72;82.83;96989.69;5093194;28;8823;-62
2022/04/07 06:49:43;;;;;;;;;0.00;0.00;;;;;9.67;82.51;96978.81;5093267;28;8955;-63
2022/04/07 06:52:11;;;;;;;;;0.00;0.00;;;;;9.60;82.95;96978.75;5103921;28;9560;-65
2022/04/07 06:54:39;;;;;;;;;0.00;0.00;;;;;9.56;83.47;96974.00;5102450;28;8827;-63
2022/04/07 06:57:07;;;;;;;;;0.00;0.00;;;;;9.52;83.52;96965.59;5094475;28;8840;-63
2022/04/07 06:59:34;;;;;;;;;0.75;0.75;;;;;9.49;83.41;96957.97;5093780;28;8969;-64
2022/04/07 07:02:02;;;;;;;;;0.00;0.00;;;;;9.45;83.52;96940.78;5103472;28;8979;-63
2022/04/07 07:04:32;;;;;;;;;0.00;0.00;;;;;9.41;84.01;96950.13;5103482;28;8819;-63
2022/04/07 07:06:59;;;;;;;;;0.75;0.00;;;;;9.36;83.94;96941.91;5095561;28;8816;-63
2022/04/07 07:09:27;;;;;;;;;0.50;0.50;;;;;9.34;83.82;96916.56;5094522;28;9506;-63
2022/04/07 07:11:55;;;;;;;;;0.00;0.00;;;;;9.32;83.69;96906.13;5106991;28;8864;-63
2022/04/07 07:14:22;;;;;;;;;0.75;0.00;;;;;9.34;83.75;96897.97;5106472;28;8982;-63
2022/04/07 07:16:51;;;;;;;;;0.00;0.00;;;;;9.40;83.98;96882.09;5105640;28;8932;-64
2022/04/07 07:19:21;;;;;;;;;0.25;0.25;;;;;9.50;83.66;96885.25;5114806;28;8927;-63
2022/04/07 07:21:49;;;;;;;;;0.00;0.00;;;;;9.60;83.50;96861.84;5112347;28;8809;-64
2022/04/07 07:24:17;;;;;;;;;0.00;0.00;;;;;9.70;83.41;96867.66;5105921;28;8972;-63
2022/04/07 07:26:45;;;;;;;;;0.00;0.00;;;;;9.82;83.21;96868.78;5104762;28;8794;-62
2022/04/07 07:29:12;;;;;;;;;0.00;0.00;;;;;9.95;82.93;96828.19;5112248;28;8867;-63
2022/04/07 07:31:40;;;;;;;;;0.00;0.00;;;;;9.98;82.77;96841.09;5112139;28;8809;-62
2022/04/07 07:34:08;;;;;;;;;1.00;1.00;;;;;10.02;83.01;96805.13;5115008;28;8844;-63
2022/04/07 07:36:36;;;;;;;;;0.00;0.00;;;;;10.06;82.65;96793.13;5114166;28;8821;-63
2022/04/07 07:39:04;;;;;;;;;0.00;0.00;;;;;10.09;82.25;96790.88;5109467;28;8840;-64
2022/04/07 07:41:31;;;;;;;;;0.00;0.00;;;;;10.06;82.54;96795.78;5101004;28;8852;-63
2022/04/07 07:43:59;;;;;;;;;1.00;1.00;;;;;10.01;82.31;96790.22;5114001;28;8829;-63
2022/04/07 07:46:29;;;;;;;;;0.00;0.00;;;;;9.96;82.47;96774.03;5113881;28;8816;-66
2022/04/07 07:48:57;;;;;;;;;0.00;0.00;;;;;9.92;82.93;96756.81;5101528;28;8852;-63
2022/04/07 07:51:24;;;;;;;;;0.00;0.00;;;;;9.85;82.93;96762.09;5093686;28;8824;-63
2022/04/07 07:53:52;;;;;;;;;0.00;0.00;;;;;9.78;83.07;96755.13;5093507;28;8824;-63
2022/04/07 07:56:20;;;;;;;;;0.00;0.00;;;;;9.73;83.65;96746.91;5093769;28;8820;-63
2022/04/07 07:58:48;;;;;;;;;0.00;0.00;;;;;9.71;83.19;96751.59;5104282;28;8814;-64
2022/04/07 08:01:15;;;;;;;;;0.00;0.00;;;;;9.71;83.29;96744.44;5096461;28;8953;-63
2022/04/07 08:03:44;;;;;;;;;0.00;0.00;;;;;9.69;83.43;96735.84;5113167;28;8862;-63
2022/04/07 08:06:11;;;;;;;;;0.00;0.00;;;;;9.67;83.85;96729.91;5111969;28;8925;-63
2022/04/07 08:08:39;;;;;;;;;0.00;0.00;;;;;9.65;83.67;96734.56;5116148;28;8864;-63
2022/04/07 08:11:14;;;;;;;;;0.00;0.00;;;;;9.63;83.88;96723.31;5085852;28;8878;-64
2022/04/07 08:13:42;;;;;;;;;0.00;0.00;;;;;9.65;83.79;96712.50;5096582;28;8904;-64
2022/04/07 08:16:10;;;;;;;;;0.00;0.00;;;;;9.68;83.65;96697.00;5096608;28;8928;-63
2022/04/07 08:18:38;;;;;;;;;0.00;0.00;;;;;9.71;83.68;96693.16;5096958;28;8841;-63
2022/04/07 08:21:06;;;;;;;;;0.00;0.00;;;;;9.72;83.82;96681.50;5112281;28;8842;-63
2022/04/07 08:23:34;;;;;;;;;0.00;0.00;;;;;9.80;83.80;96668.84;5096716;28;8847;-63
2022/04/07 08:26:01;;;;;;;;;0.00;0.00;;;;;9.86;83.88;96691.97;5096311;28;8828;-62
2022/04/07 08:28:29;;;;;;;;;0.00;0.00;;;;;9.83;83.80;96679.09;5097375;28;8831;-64
2022/04/07 08:30:57;;;;;;;;;0.00;0.00;;;;;9.77;83.76;96690.50;5100256;28;8870;-64
2022/04/07 08:33:25;;;;;;;;;0.00;0.00;;;;;9.70;84.40;96667.56;5117206;28;8973;-65
2022/04/07 08:35:54;;;;;;;;;0.00;0.00;;;;;9.66;84.38;96669.00;5116006;28;8861;-64
2022/04/07 08:38:22;;;;;;;;;0.00;0.00;;;;;9.65;84.62;96668.16;5116403;28;8869;-65
2022/04/07 08:40:50;;;;;;;;;0.00;0.00;;;;;9.67;84.83;96657.34;5097957;28;8832;-64
2022/04/07 08:43:18;;;;;;;;;0.00;0.00;;;;;9.66;84.78;96651.19;5095523;28;8815;-63
2022/04/07 08:45:45;;;;;;;;;0.00;0.00;;;;;9.69;85.00;96650.00;5104721;28;8822;-63
2022/04/07 08:48:13;;;;;;;;;0.00;0.00;;;;;9.74;85.00;96635.13;5116005;28;8845;-63
2022/04/07 08:50:41;;;;;;;;;0.00;0.00;;;;;9.82;84.78;96624.31;5100435;28;8841;-64
2022/04/07 08:53:09;;;;;;;;;0.00;0.00;;;;;9.97;84.40;96635.63;5096057;28;8824;-63
2022/04/07 08:55:37;;;;;;;;;0.00;0.00;;;;;10.09;84.48;96604.00;5096380;28;8812;-63
2022/04/07 08:58:05;;;;;;;;;0.00;0.00;;;;;10.16;84.39;96612.81;5097076;28;8874;-62
2022/04/07 09:00:32;;;;;;;;;0.00;0.00;;;;;10.18;84.87;96602.78;5108694;28;8910;-63
2022/04/07 09:03:00;;;;;;;;;0.00;0.00;;;;;10.16;84.61;96579.03;5113047;28;8964;-64
2022/04/07 09:05:32;;;;;;;;;0.00;0.00;;;;;10.17;84.50;96570.03;5117265;28;8829;-62
2022/04/07 09:08:00;;;;;;;;;0.00;0.00;;;;;10.13;84.45;96584.78;5115756;28;8837;-63
2022/04/07 09:10:28;;;;;;;;;0.00;0.00;;;;;10.08;84.79;96570.47;5101268;28;8853;-62
2022/04/07 09:12:56;;;;;;;;;0.00;0.00;;;;;10.01;85.14;96567.72;5094795;28;8854;-63
2022/04/07 09:15:24;;;;;;;;;0.00;0.00;;;;;9.98;85.05;96568.16;5096328;28;8839;-63
2022/04/07 09:17:53;;;;;;;;;0.00;0.00;;;;;9.99;85.79;96563.63;5075278;28;8834;-63
2022/04/07 09:20:21;;;;;;;;;0.00;0.00;;;;;9.99;85.76;96569.78;5100972;28;8832;-63
2022/04/07 09:22:48;;;;;;;;;0.00;0.00;;;;;10.02;85.89;96553.41;5076222;28;8834;-63
2022/04/07 09:25:16;;;;;;;;;0.00;0.00;;;;;10.06;85.79;96538.75;5111150;28;8837;-63
2022/04/07 09:27:44;;;;;;;;;0.00;0.00;;;;;10.09;85.70;96525.03;5114581;28;8821;-64
2022/04/07 09:30:12;;;;;;;;;0.00;0.00;;;;;10.15;85.88;96528.72;5103705;28;8838;-63
2022/04/07 09:32:41;;;;;;;;;0.00;0.00;;;;;10.20;85.59;96524.47;5108206;28;8859;-62
2022/04/07 09:35:09;;;;;;;;;0.00;0.00;;;;;10.23;85.71;96500.13;5114924;28;8840;-63
2022/04/07 09:37:36;;;;;;;;;0.00;0.00;;;;;10.32;86.06;96495.41;5105949;28;9499;-62
2022/04/07 09:40:04;;;;;;;;;0.00;0.00;;;;;10.37;85.74;96493.78;5114265;28;8841;-63
2022/04/07 09:42:33;;;;;;;;;0.00;0.00;;;;;10.47;85.45;96483.53;5113645;28;8846;-64
2022/04/07 09:45:02;;;;;;;;;0.00;0.00;;;;;10.62;85.31;96454.84;5112600;28;8818;-64
2022/04/07 09:47:31;;;;;;;;;0.00;0.00;;;;;10.75;85.14;96489.44;5104239;28;9714;-63
2022/04/07 09:49:59;;;;;;;;;0.00;0.00;;;;;10.80;84.76;96512.75;5115616;28;8863;-63
2022/04/07 09:52:27;;;;;;;;;0.00;0.00;;;;;10.85;84.78;96471.19;5114608;28;8851;-63
2022/04/07 09:54:55;;;;;;;;;0.00;0.00;;;;;10.88;84.84;96473.44;5106191;28;8970;-64
2022/04/07 09:57:23;;;;;;;;;0.00;0.00;;;;;10.80;85.28;96550.84;5105441;28;8917;-64
2022/04/07 09:59:50;;;;;;;;;0.00;0.00;;;;;10.75;85.25;96579.06;5094193;28;8840;-64
2022/04/07 10:02:18;;;;;;;;;0.00;0.00;;;;;10.41;84.66;96622.66;5098981;28;9871;-64
2022/04/07 10:04:46;;;;;;;;;0.00;0.00;;;;;9.81;84.65;96643.91;5093264;28;8808;-65
2022/04/07 10:07:14;;;;;;;;;0.00;0.00;;;;;9.34;85.72;96659.81;5092799;28;8823;-65
2022/04/07 10:09:46;;;;;;;;;0.00;0.00;;;;;9.05;86.00;96646.75;5092971;28;8989;-64
2022/04/07 10:12:13;;;;;;;;;0.00;0.00;;;;;8.83;87.09;96647.00;5096955;28;9541;-64
2022/04/07 10:14:41;;;;;;;;;0.00;0.00;;;;;8.70;87.47;96653.00;5114116;28;8930;-64
2022/04/07 10:17:10;;;;;;;;;0.00;0.00;;;;;8.61;87.78;96664.78;5113484;28;8817;-63
2022/04/07 10:19:37;;;;;;;;;0.00;0.00;;;;;8.53;88.17;96646.31;5111649;28;8829;-63
2022/04/07 10:22:05;;;;;;;;;0.00;0.00;;;;;8.50;87.82;96637.94;5096106;28;8853;-62
2022/04/07 10:24:35;;;;;;;;;0.00;0.00;;;;;8.48;88.25;96643.44;5113892;28;8844;-62
2022/04/07 10:27:23;;;;;;;;;0.00;0.00;;;;;8.47;88.10;96652.41;5096733;28;8834;-63
2022/04/07 10:29:54;;;;;;;;;0.00;0.00;;;;;8.45;87.83;96654.41;5091741;28;8820;-62
2022/04/07 10:32:22;;;;;;;;;0.00;0.00;;;;;8.41;87.93;96639.06;5098419;28;8845;-63
2022/04/07 10:34:50;;;;;;;;;0.00;0.00;;;;;8.42;87.76;96640.69;5093954;28;9003;-63
2022/04/07 10:37:19;;;;;;;;;0.00;0.00;;;;;8.47;87.87;96647.09;5100857;28;8818;-63
2022/04/07 10:39:46;;;;;;;;;0.00;0.00;;;;;8.54;87.91;96641.84;5096211;28;8835;-63
2022/04/07 10:42:14;;;;;;;;;0.00;0.00;;;;;8.58;87.74;96646.56;5092257;28;8862;-63
2022/04/07 10:44:42;;;;;;;;;0.00;0.00;;;;;8.60;87.53;96651.69;5092742;28;8868;-62
2022/04/07 10:47:10;;;;;;;;;0.00;0.00;;;;;8.64;87.14;96637.84;5092990;28;8983;-62
2022/04/07 10:49:38;;;;;;;;;0.00;0.00;;;;;8.70;87.25;96623.84;5092641;28;8826;-62
2022/04/07 10:52:07;;;;;;;;;0.00;0.00;;;;;8.81;86.88;96619.84;5092480;28;8841;-62
2022/04/07 10:54:35;;;;;;;;;0.00;0.00;;;;;9.23;86.29;96617.88;5091504;28;8966;-62
2022/04/07 10:57:02;;;;;;;;;0.00;0.00;;;;;9.60;85.59;96621.97;5091317;28;8815;-62
2022/04/07 10:59:31;;;;;;;;;0.00;0.00;;;;;9.68;84.92;96632.41;5071886;28;8853;-62
2022/04/07 11:02:00;;;;;;;;;0.00;0.00;;;;;9.83;85.24;96622.47;5096215;28;9494;-62
2022/04/07 11:04:27;;;;;;;;;0.00;0.00;;;;;10.13;84.17;96621.16;5091977;28;8869;-62
2022/04/07 11:06:55;;;;;;;;;0.00;0.00;;;;;10.37;83.49;96616.13;5103828;28;8817;-62
2022/04/07 11:09:23;;;;;;;;;0.00;0.00;;;;;10.58;82.65;96602.63;5095005;28;8827;-63
2022/04/07 11:11:53;;;;;;;;;1.00;0.50;;;;;10.77;82.00;96612.44;5091680;28;9559;-62
2022/04/07 11:14:21;;;;;;;;;0.00;0.00;;;;;10.90;81.93;96619.63;5111863;28;8958;-63
2022/04/07 11:16:49;;;;;;;;;0.00;0.00;;;;;10.95;81.70;96625.16;5112699;28;8806;-63
2022/04/07 11:19:18;;;;;;;;;0.00;0.00;;;;;11.01;81.34;96627.00;5113474;28;8848;-62
2022/04/07 11:21:46;;;;;;;;;0.00;0.00;;;;;11.16;81.06;96623.06;5113328;28;8944;-61
2022/04/07 11:24:14;;;;;;;;;0.00;0.00;;;;;11.28;81.00;96620.59;5100668;28;8833;-61
2022/04/07 11:26:42;;;;;;;;;0.00;0.00;;;;;12.01;78.94;96618.38;5113057;28;8825;-62
2022/04/07 11:29:09;;;;;;;;;0.00;0.00;;;;;12.78;77.29;96606.38;5101233;28;8917;-63
2022/04/07 11:31:38;;;;;;;;;0.00;0.00;;;;;13.56;74.88;96616.38;5092484;28;8820;-62
2022/04/07 11:34:06;;;;;;;;;0.00;0.00;;;;;14.38;73.31;96618.47;5109710;28;8906;-62
2022/04/07 11:36:34;;;;;;;;;0.00;0.00;;;;;15.28;70.97;96607.38;5113311;28;9510;-62
2022/04/07 11:39:02;;;;;;;;;0.00;0.00;;;;;16.19;68.31;96620.66;5112508;28;9856;-62
2022/04/07 11:41:30;;;;;;;;;0.00;0.00;;;;;16.99;66.50;96613.31;5098244;28;8832;-63
2022/04/07 11:43:57;;;;;;;;;0.00;0.00;;;;;17.76;65.64;96620.50;5110878;28;8848;-62
2022/04/07 11:46:25;;;;;;;;;0.00;0.00;;;;;18.12;64.76;96619.88;5116494;28;8829;-63
2022/04/07 11:48:59;;;;;;;;;0.00;0.00;;;;;17.67;65.86;96646.16;5117810;28;8941;-62
2022/04/07 11:51:26;;;;;;;;;0.00;0.00;;;;;17.74;65.14;96636.88;5116583;28;8827;-63